Time;durP1;ratioP1;P1;durP2;ratioP2;P2;SDS_P1;SDS_P2;PMS_P1;PMS_P2;Temp;Humidity;BMP_temperature;BMP_pressure;BME280_temperature;BME280_humidity;BME280_pressure;Samples;Min_cycle;Max_cycle;Signal;HPM_P1;HPM_P2
2022/05/05 00:01:54;;;;;;;3.88;1.65;;;;;;;3.37;55.07;99827.50;4997206;28;20050;-69
2022/05/05 00:04:22;;;;;;;2.13;1.23;;;;;;;3.38;55.29;99840.16;4994970;28;20533;-69
2022/05/05 00:06:51;;;;;;;12.38;2.03;;;;;;;3.34;55.38;99844.53;4996812;28;20058;-69
2022/05/05 00:09:18;;;;;;;3.23;1.50;;;;;;;3.26;55.39;99845.13;4996485;28;20104;-70
2022/05/05 00:14:32;;;;;;;2.42;1.65;;;;;;;3.19;55.43;99842.66;4996554;28;20145;-70
2022/05/05 00:17:01;;;;;;;2.33;1.50;;;;;;;3.20;55.70;99843.50;4995307;28;20483;-70
2022/05/05 00:19:31;;;;;;;12.30;1.60;;;;;;;3.25;55.18;99841.56;4996177;28;20616;-69
2022/05/05 00:21:58;;;;;;;3.38;1.40;;;;;;;3.21;55.61;99850.63;4996453;28;20137;-70
2022/05/05 00:24:28;;;;;;;2.88;1.65;;;;;;;3.17;55.69;99855.84;4997064;28;20109;-69
2022/05/05 00:26:55;;;;;;;2.40;1.60;;;;;;;3.16;55.59;99859.72;4996362;28;20531;-69
2022/05/05 00:29:23;;;;;;;3.38;1.52;;;;;;;3.15;55.69;99854.50;4996212;28;20100;-69
2022/05/05 00:31:51;;;;;;;5.18;1.60;;;;;;;3.10;55.85;99857.22;4995952;28;20402;-70
2022/05/05 00:34:19;;;;;;;5.22;1.75;;;;;;;2.98;55.81;99840.22;4978621;28;20061;-68
2022/05/05 00:36:46;;;;;;;3.08;1.40;;;;;;;3.09;55.96;99869.34;4995973;28;20494;-69
2022/05/05 00:39:14;;;;;;;3.60;1.38;;;;;;;3.07;55.83;99866.03;4995179;28;20077;-69
2022/05/05 00:41:47;;;;;;;3.00;1.48;;;;;;;3.09;55.96;99869.34;4995027;28;20137;-69
2022/05/05 00:44:15;;;;;;;2.38;1.30;;;;;;;3.00;55.87;99866.31;4996110;28;20060;-68
2022/05/05 00:46:50;;;;;;;4.03;1.40;;;;;;;3.00;55.73;99876.47;4994224;28;20088;-70
2022/05/05 00:49:18;;;;;;;2.38;1.45;;;;;;;2.99;55.80;99872.91;4995558;28;20486;-68
2022/05/05 00:51:45;;;;;;;3.47;1.77;;;;;;;2.99;55.92;99880.34;4994608;28;20058;-69
2022/05/05 00:54:12;;;;;;;6.25;1.65;;;;;;;2.94;55.63;99881.16;4995673;28;20046;-69
2022/05/05 00:56:43;;;;;;;7.30;1.70;;;;;;;2.99;55.87;99881.16;4995975;28;20058;-69
2022/05/05 00:59:11;;;;;;;4.70;1.73;;;;;;;3.02;55.91;99879.78;4994602;28;20074;-69
2022/05/05 01:01:39;;;;;;;3.15;1.85;;;;;;;3.03;55.93;99892.41;4995745;28;20416;-69
2022/05/05 01:04:07;;;;;;;3.65;1.80;;;;;;;3.00;55.73;99887.47;4995739;28;20050;-70
2022/05/05 01:06:36;;;;;;;13.27;1.90;;;;;;;2.99;55.87;99892.13;4995520;28;20088;-69
2022/05/05 01:09:06;;;;;;;2.95;1.60;;;;;;;2.96;56.35;99886.38;4995032;28;20073;-69
2022/05/05 01:11:33;;;;;;;4.78;1.85;;;;;;;2.91;55.87;99894.63;4995104;28;20042;-69
2022/05/05 01:14:00;;;;;;;5.82;2.10;;;;;;;2.89;56.20;99897.63;4995259;28;20531;-69
2022/05/05 01:16:28;;;;;;;7.50;1.60;;;;;;;2.88;56.13;99898.75;4995395;28;20509;-70
2022/05/05 01:18:56;;;;;;;11.55;1.60;;;;;;;2.86;56.16;99908.34;4994892;28;20050;-69
2022/05/05 01:21:23;;;;;;;3.58;1.30;;;;;;;2.76;56.40;99902.84;4995143;28;20077;-69
2022/05/05 01:23:50;;;;;;;2.42;1.50;;;;;;;2.72;56.45;99910.81;4994892;28;20101;-69
2022/05/05 01:29:05;;;;;;;5.32;1.63;;;;;;;2.73;56.25;99908.88;4994829;28;20046;-69
2022/05/05 01:31:33;;;;;;;2.60;1.27;;;;;;;2.68;56.19;99911.63;4994724;28;20047;-69
2022/05/05 01:34:00;;;;;;;15.27;3.40;;;;;;;2.68;56.25;99917.13;4994883;28;20058;-70
2022/05/05 01:36:26;;;;;;;4.32;1.73;;;;;;;2.70;56.28;99925.91;4994885;28;20058;-69
2022/05/05 01:38:53;;;;;;;3.35;1.45;;;;;;;2.60;56.64;99925.91;4994809;28;20046;-69
2022/05/05 01:41:21;;;;;;;3.08;1.40;;;;;;;2.59;56.91;99941.56;4994822;28;20501;-70
2022/05/05 01:43:48;;;;;;;3.60;1.70;;;;;;;2.52;56.46;99934.66;4994828;28;20050;-69
2022/05/05 01:46:15;;;;;;;5.53;1.52;;;;;;;2.54;56.65;99943.44;4993199;28;20050;-69
2022/05/05 01:48:42;;;;;;;3.25;1.55;;;;;;;2.51;56.97;99949.47;4994212;28;20090;-70
2022/05/05 01:51:09;;;;;;;6.05;1.63;;;;;;;2.49;57.37;99952.47;4994599;28;20057;-69
2022/05/05 01:53:36;;;;;;;2.58;1.60;;;;;;;2.48;56.85;99956.34;4994534;28;20050;-69
2022/05/05 01:56:12;;;;;;;2.10;1.40;;;;;;;2.49;56.65;99960.72;4995115;28;20502;-72
2022/05/05 01:58:42;;;;;;;3.03;1.33;;;;;;;2.47;56.84;99956.59;4994441;28;20050;-72
2022/05/05 02:01:10;;;;;;;6.80;1.40;;;;;;;2.55;57.01;99950.59;4994735;28;20050;-72
2022/05/05 02:03:38;;;;;;;3.20;1.45;;;;;;;2.61;56.52;99960.50;4993439;28;20051;-65
2022/05/05 02:06:05;;;;;;;8.20;1.58;;;;;;;2.60;56.84;99965.16;4994383;28;20510;-66
2022/05/05 02:08:32;;;;;;;2.95;1.48;;;;;;;2.59;56.80;99969.00;4994356;28;20050;-65
2022/05/05 02:10:59;;;;;;;6.93;1.70;;;;;;;2.60;56.42;99967.91;4993981;28;20081;-66
2022/05/05 02:13:26;;;;;;;3.50;1.70;;;;;;;2.64;56.56;99970.94;4994392;28;20046;-66
2022/05/05 02:15:53;;;;;;;3.03;1.65;;;;;;;2.64;56.46;99976.44;4994061;28;20062;-65
2022/05/05 02:18:20;;;;;;;3.17;1.77;;;;;;;2.62;56.62;99970.38;4993578;28;20510;-65
2022/05/05 02:20:47;;;;;;;5.72;1.60;;;;;;;2.66;56.76;99974.25;4993970;28;20052;-65
2022/05/05 02:23:15;;;;;;;2.70;1.42;;;;;;;2.65;56.74;99978.06;4993807;28;20446;-65
2022/05/05 02:25:42;;;;;;;3.33;1.70;;;;;;;2.60;56.67;99978.09;4993731;28;20050;-68
2022/05/05 02:28:10;;;;;;;2.58;1.60;;;;;;;2.59;56.53;99976.41;4994772;28;20082;-65
2022/05/05 02:30:37;;;;;;;3.13;1.85;;;;;;;2.62;56.61;99992.34;4994264;28;20046;-65
2022/05/05 02:33:04;;;;;;;2.42;1.60;;;;;;;2.58;56.75;99994.00;4993553;28;20053;-66
2022/05/05 02:35:32;;;;;;;2.92;1.55;;;;;;;2.51;56.84;99998.88;4993561;28;20061;-65
2022/05/05 02:40:44;;;;;;;5.07;1.85;;;;;;;2.57;56.97;100000.59;4993540;28;20413;-72
2022/05/05 02:43:11;;;;;;;3.60;1.40;;;;;;;2.62;56.94;100011.56;4993651;28;20050;-71
2022/05/05 02:45:38;;;;;;;2.88;1.67;;;;;;;2.67;57.06;100011.59;4993720;28;20054;-72
2022/05/05 02:48:05;;;;;;;2.53;1.58;;;;;;;2.68;56.81;100013.25;4993220;28;20054;-72
2022/05/05 02:50:32;;;;;;;3.13;1.83;;;;;;;2.72;56.98;100011.63;4992066;28;20046;-72
2022/05/05 02:54:47;;;;;;;2.75;1.63;;;;;;;2.74;56.61;100023.97;4993505;28;20508;-72
2022/05/05 02:55:53;;;;;;;2.90;1.60;;;;;;;2.76;56.58;100023.72;4993431;28;20053;-71
2022/05/05 02:58:20;;;;;;;3.13;2.10;;;;;;;2.86;56.57;100023.72;4993460;28;20078;-72
2022/05/05 03:00:47;;;;;;;4.57;1.95;;;;;;;2.91;55.75;100027.34;4993445;28;20038;-65
2022/05/05 03:03:14;;;;;;;2.17;1.45;;;;;;;2.91;56.15;100021.00;4993345;28;20120;-65
2022/05/05 03:05:41;;;;;;;2.55;1.83;;;;;;;2.99;56.22;100029.53;4993585;28;20489;-65
2022/05/05 03:08:08;;;;;;;3.65;1.80;;;;;;;3.11;55.70;100043.03;4991839;28;20062;-64
2022/05/05 03:10:35;;;;;;;2.47;1.50;;;;;;;3.15;55.72;100038.63;4993416;28;20391;-69
2022/05/05 03:13:02;;;;;;;12.10;2.00;;;;;;;3.20;55.46;100030.41;4992995;28;20054;-64
2022/05/05 03:15:29;;;;;;;3.70;1.58;;;;;;;3.26;55.59;100024.63;4993212;28;20109;-65
2022/05/05 03:17:56;;;;;;;5.45;1.50;;;;;;;3.53;55.21;100036.19;4991737;28;20072;-65
2022/05/05 03:20:24;;;;;;;3.78;1.40;;;;;;;3.74;54.35;100037.03;4993398;28;20050;-69
2022/05/05 03:22:51;;;;;;;4.32;2.70;;;;;;;4.09;54.12;100045.25;4993197;28;20506;-69
2022/05/05 03:25:18;;;;;;;3.28;1.80;;;;;;;4.33;53.14;100046.28;4992878;28;20417;-69
2022/05/05 03:27:45;;;;;;;3.47;1.55;;;;;;;4.52;52.85;100044.56;4993188;28;20050;-70
2022/05/05 03:30:12;;;;;;;4.13;1.83;;;;;;;4.66;52.17;100059.41;4993156;28;20074;-69
2022/05/05 03:32:39;;;;;;;2.60;1.58;;;;;;;4.75;51.75;100060.47;4993028;28;20050;-69
2022/05/05 03:35:06;;;;;;;4.38;1.60;;;;;;;4.95;52.18;100049.31;4993374;28;20054;-69
2022/05/05 03:37:33;;;;;;;3.75;1.77;;;;;;;5.11;51.45;100064.69;4992942;28;20058;-69
2022/05/05 03:40:00;;;;;;;3.15;1.42;;;;;;;5.18;51.08;100059.69;4992951;28;20051;-69
2022/05/05 03:42:29;;;;;;;2.80;1.50;;;;;;;5.13;50.88;100068.00;4992003;28;20058;-69
2022/05/05 03:44:56;;;;;;;3.13;1.42;;;;;;;5.15;50.79;100065.75;4992965;28;20405;-68
2022/05/05 03:47:23;;;;;;;15.45;12.85;;;;;;;5.24;50.90;100077.03;4992777;28;20058;-70
2022/05/05 03:49:50;;;;;;;2.80;1.83;;;;;;;5.25;49.99;100070.41;4991198;28;20521;-71
2022/05/05 03:52:17;;;;;;;3.33;1.77;;;;;;;5.16;50.15;100072.94;4993337;28;20050;-71
2022/05/05 03:54:44;;;;;;;3.38;1.55;;;;;;;5.30;49.72;100073.13;4991821;28;20137;-71
2022/05/05 03:57:11;;;;;;;4.80;1.55;;;;;;;5.35;49.50;100073.91;4992701;28;20470;-70
2022/05/05 03:59:38;;;;;;;2.75;1.20;;;;;;;5.36;49.95;100086.59;4992890;28;20509;-65
2022/05/05 04:02:05;;;;;;;2.70;1.13;;;;;;;5.27;49.37;100093.81;4992955;28;20150;-68
2022/05/05 04:04:32;;;;;;;6.45;1.35;;;;;;;5.24;49.40;100099.91;4992724;28;20570;-64
2022/05/05 04:06:59;;;;;;;2.90;1.13;;;;;;;5.29;49.06;100094.38;4992919;28;20050;-65
2022/05/05 04:09:26;;;;;;;6.15;1.30;;;;;;;5.26;49.11;100097.69;4992478;28;20078;-65
2022/05/05 04:11:53;;;;;;;4.47;1.45;;;;;;;5.38;48.70;100100.94;4992804;28;20046;-73
2022/05/05 04:14:20;;;;;;;3.88;1.80;;;;;;;5.61;48.52;100094.72;4991751;28;20062;-75
2022/05/05 04:16:47;;;;;;;2.90;1.30;;;;;;;5.78;47.62;100096.25;4993037;28;20049;-74
2022/05/05 04:19:14;;;;;;;2.63;1.45;;;;;;;5.83;47.62;100110.84;4992440;28;20042;-73
2022/05/05 04:21:41;;;;;;;6.15;1.67;;;;;;;6.03;47.26;100107.94;4992692;28;20137;-74
2022/05/05 04:24:08;;;;;;;3.50;1.20;;;;;;;6.06;47.05;100114.81;4992775;28;20058;-74
2022/05/05 04:26:35;;;;;;;2.53;1.35;;;;;;;6.14;47.06;100109.50;4994029;28;20049;-74
2022/05/05 04:29:03;;;;;;;2.13;1.00;;;;;;;6.20;46.18;100115.78;4995964;28;20078;-73
2022/05/05 04:31:31;;;;;;;3.10;1.50;;;;;;;6.29;46.21;100111.28;4996076;28;20561;-73
2022/05/05 04:33:58;;;;;;;3.30;1.23;;;;;;;6.30;45.72;100126.75;4996034;28;20053;-76
2022/05/05 04:36:26;;;;;;;7.32;1.77;;;;;;;6.25;45.14;100118.53;4996050;28;20417;-74
2022/05/05 04:38:53;;;;;;;3.58;1.45;;;;;;;6.37;45.00;100128.06;4995993;28;20521;-74
2022/05/05 04:41:21;;;;;;;2.28;1.10;;;;;;;6.53;44.63;100125.97;4995856;28;20046;-74
2022/05/05 04:43:48;;;;;;;2.15;1.00;;;;;;;6.65;44.89;100129.16;4995723;28;20085;-74
2022/05/05 04:46:15;;;;;;;4.38;1.20;;;;;;;6.63;44.58;100125.88;4995609;28;20078;-74
2022/05/05 04:48:42;;;;;;;4.20;1.17;;;;;;;6.51;44.05;100134.56;4995329;28;20477;-74
2022/05/05 04:51:09;;;;;;;2.70;1.00;;;;;;;6.52;44.15;100130.69;4996008;28;20052;-74
2022/05/05 04:53:36;;;;;;;2.67;1.23;;;;;;;6.71;42.87;100125.22;4994545;28;20137;-74
2022/05/05 04:56:03;;;;;;;2.92;1.25;;;;;;;6.76;43.26;100142.59;4995689;28;20414;-74
2022/05/05 04:58:35;;;;;;;4.93;1.20;;;;;;;6.89;42.17;100139.13;4995574;28;20085;-74
2022/05/05 05:01:03;;;;;;;1.88;1.08;;;;;;;6.80;42.46;100137.28;4995593;28;20555;-73
2022/05/05 05:03:33;;;;;;;2.80;1.13;;;;;;;6.90;42.41;100139.97;4995073;28;20050;-75
2022/05/05 05:06:01;;;;;;;2.38;1.10;;;;;;;7.02;41.86;100140.38;4995573;28;20049;-75
2022/05/05 05:08:29;;;;;;;4.00;1.25;;;;;;;7.13;40.81;100141.88;4993882;28;20544;-75
2022/05/05 05:10:57;;;;;;;1.95;1.05;;;;;;;7.14;40.60;100140.78;4995368;28;20561;-73
2022/05/05 05:13:24;;;;;;;2.90;1.45;;;;;;;7.26;40.12;100146.69;4995133;28;20050;-74
2022/05/05 05:15:51;;;;;;;2.10;1.08;;;;;;;7.44;40.20;100157.78;4995049;28;20101;-77
2022/05/05 05:18:18;;;;;;;9.15;1.30;;;;;;;7.66;39.48;100151.69;4977523;28;20050;-75
2022/05/05 05:20:45;;;;;;;3.10;1.50;;;;;;;7.71;38.87;100154.38;4995384;28;20065;-73
2022/05/05 05:23:12;;;;;;;4.53;2.35;;;;;;;7.85;39.22;100160.84;4995039;28;20501;-74
2022/05/05 05:25:40;;;;;;;3.22;1.02;;;;;;;8.04;38.84;100161.63;4995130;28;20053;-75
2022/05/05 05:28:06;;;;;;;3.15;1.23;;;;;;;8.18;38.37;100165.28;4995154;28;20569;-73
2022/05/05 05:30:38;;;;;;;2.55;1.10;;;;;;;8.47;37.24;100163.16;4995031;28;20042;-74
2022/05/05 05:33:06;;;;;;;4.22;1.17;;;;;;;8.31;36.85;100166.47;4995375;28;20141;-74
2022/05/05 05:35:33;;;;;;;5.38;1.20;;;;;;;8.63;36.45;100167.31;4995070;28;20061;-73
2022/05/05 05:38:00;;;;;;;2.20;1.00;;;;;;;8.93;36.23;100163.13;4994712;28;20082;-74
2022/05/05 05:40:27;;;;;;;1.20;0.80;;;;;;;9.29;36.01;100176.00;4994874;28;20515;-73
2022/05/05 05:42:55;;;;;;;1.77;0.80;;;;;;;9.84;35.54;100170.38;4994752;28;20089;-73
2022/05/05 05:45:23;;;;;;;1.75;0.70;;;;;;;10.43;33.17;100167.31;4994800;28;20046;-73
2022/05/05 05:47:50;;;;;;;1.63;0.90;;;;;;;11.16;32.72;100170.34;4994424;28;20084;-71
2022/05/05 05:50:17;;;;;;;1.55;1.00;;;;;;;12.57;29.13;100167.63;4994073;28;20429;-70
2022/05/05 05:52:44;;;;;;;1.83;0.90;;;;;;;14.66;26.48;100157.09;4993205;28;20128;-72
2022/05/05 05:55:11;;;;;;;1.27;0.77;;;;;;;16.97;24.21;100159.34;4994095;28;20496;-71
2022/05/05 05:57:38;;;;;;;2.70;0.80;;;;;;;17.03;23.92;100163.53;4994384;28;20054;-70
2022/05/05 06:00:05;;;;;;;1.65;0.82;;;;;;;17.54;23.19;100154.06;4994015;28;20054;-64
2022/05/05 06:05:19;;;;;;;1.48;0.80;;;;;;;16.89;22.45;100160.31;4994142;28;20108;-74
2022/05/05 06:07:46;;;;;;;1.52;1.00;;;;;;;15.52;23.81;100172.94;4993232;28;20465;-73
2022/05/05 06:10:13;;;;;;;4.05;1.00;;;;;;;16.75;22.69;100171.19;4993949;28;20054;-75
2022/05/05 06:12:40;;;;;;;1.55;0.70;;;;;;;16.66;21.40;100176.94;4994166;28;20047;-75
2022/05/05 06:15:08;;;;;;;2.90;1.05;;;;;;;14.99;23.03;100164.66;4993773;28;20049;-74
2022/05/05 06:17:35;;;;;;;1.83;0.57;;;;;;;13.07;25.10;100183.78;4994025;28;20572;-75
2022/05/05 06:20:02;;;;;;;2.58;1.10;;;;;;;13.91;24.42;100181.72;4993622;28;20502;-75
2022/05/05 06:22:30;;;;;;;0.65;0.60;;;;;;;15.59;21.80;100182.41;4993836;28;20128;-75
2022/05/05 06:24:56;;;;;;;1.52;0.80;;;;;;;13.67;23.52;100190.75;4993924;28;20054;-76
2022/05/05 06:27:24;;;;;;;1.38;0.90;;;;;;;12.28;24.72;100195.38;4994049;28;20073;-76
2022/05/05 06:29:51;;;;;;;2.70;0.93;;;;;;;12.48;24.29;100185.53;4993852;28;20086;-75
2022/05/05 06:32:18;;;;;;;7.28;1.02;;;;;;;13.56;23.37;100189.50;4993727;28;20129;-76
2022/05/05 06:34:45;;;;;;;3.17;0.80;;;;;;;13.28;23.58;100187.50;4993516;28;20387;-76
2022/05/05 06:37:12;;;;;;;3.63;1.00;;;;;;;15.61;21.40;100196.91;4993605;28;20390;-75
2022/05/05 06:39:39;;;;;;;2.45;0.80;;;;;;;17.96;18.85;100194.47;4993743;28;20146;-75
2022/05/05 06:42:08;;;;;;;2.22;0.68;;;;;;;18.81;18.05;100195.22;4993560;28;20465;-76
2022/05/05 06:44:35;;;;;;;1.95;1.05;;;;;;;19.77;17.67;100191.00;4993807;28;20050;-75
2022/05/05 06:47:04;;;;;;;2.10;0.95;;;;;;;19.61;16.99;100186.69;4993395;28;20084;-76
2022/05/05 06:49:31;;;;;;;3.50;0.68;;;;;;;18.53;16.82;100191.78;4992813;28;20104;-75
2022/05/05 06:51:59;;;;;;;1.65;0.95;;;;;;;18.74;16.84;100211.97;4993195;28;20391;-76
2022/05/05 06:54:32;;;;;;;2.25;0.77;;;;;;;19.16;16.17;100198.72;4993401;28;20124;-74
2022/05/05 06:56:58;;;;;;;2.03;1.23;;;;;;;18.79;16.53;100208.88;4993718;28;20089;-75
2022/05/05 06:59:25;;;;;;;2.50;0.82;;;;;;;17.73;17.34;100214.03;4993391;28;20074;-76
2022/05/05 07:01:52;;;;;;;6.70;1.33;;;;;;;19.56;16.23;100213.22;4993416;28;20042;-76
2022/05/05 07:07:21;;;;;;;1.77;0.80;;;;;;;24.40;12.22;100195.78;4993376;28;20078;-75
2022/05/05 07:12:33;;;;;;;12.90;7.07;;;;;;;25.71;11.57;100197.63;4993318;28;20046;-76
2022/05/05 07:15:00;;;;;;;6.68;0.75;;;;;;;22.19;13.65;100209.31;4993232;28;20420;-75
2022/05/05 07:17:29;;;;;;;2.00;0.73;;;;;;;21.36;14.66;100208.16;4993518;28;20054;-75
2022/05/05 07:19:58;;;;;;;2.85;1.00;;;;;;;22.25;13.72;100211.41;4993092;28;20058;-74
2022/05/05 07:22:25;;;;;;;2.83;0.93;;;;;;;24.78;12.10;100214.81;4992787;28;20454;-75
2022/05/05 07:24:52;;;;;;;0.88;0.77;;;;;;;27.48;10.41;100206.75;4992641;28;20149;-74
2022/05/05 07:27:19;;;;;;;1.65;1.15;;;;;;;30.37;8.96;100202.47;4992679;28;20535;-74
2022/05/05 07:29:46;;;;;;;4.55;2.03;;;;;;;32.32;7.57;100190.38;4993221;28;20185;-75
2022/05/05 07:32:13;;;;;;;2.58;1.08;;;;;;;33.45;7.13;100203.03;4993161;28;20042;-75
2022/05/05 07:34:42;;;;;;;5.22;1.20;;;;;;;34.42;6.63;100207.28;4992864;28;20081;-75
2022/05/05 07:37:09;;;;;;;2.25;1.00;;;;;;;35.24;6.24;100199.44;4993280;28;20105;-75
2022/05/05 07:39:36;;;;;;;4.60;1.13;;;;;;;34.74;6.62;100213.28;4992797;28;20043;-76
2022/05/05 07:42:04;;;;;;;1.85;1.00;;;;;;;34.80;6.16;100202.66;4993001;28;20080;-75
2022/05/05 07:44:31;;;;;;;3.03;1.05;;;;;;;35.13;5.94;100211.50;4993104;28;20104;-76
2022/05/05 07:46:58;;;;;;;5.07;1.08;;;;;;;35.69;5.54;100211.72;4992735;28;20161;-76
2022/05/05 07:49:26;;;;;;;1.83;1.00;;;;;;;36.59;5.74;100204.69;4992710;28;20136;-75
2022/05/05 07:51:53;;;;;;;3.40;1.00;;;;;;;36.45;5.66;100203.34;4991007;28;21473;-70
2022/05/05 07:54:36;;;;;;;9.20;5.60;;;;;;;37.48;5.49;100204.41;4995268;28;20047;-71
2022/05/05 07:57:05;;;;;;;3.47;1.38;;;;;;;38.01;5.24;100202.16;4993828;28;20523;-71
2022/05/05 07:59:32;;;;;;;4.43;1.00;;;;;;;39.33;4.60;100198.13;4992730;28;20506;-71
2022/05/05 08:01:59;;;;;;;2.05;0.95;;;;;;;40.88;4.22;100202.25;4996174;28;20133;-71
2022/05/05 08:04:26;;;;;;;5.03;1.63;;;;;;;40.65;4.05;100212.19;4996210;28;20050;-71
2022/05/05 08:06:53;;;;;;;2.40;1.00;;;;;;;37.93;4.74;100195.16;4996365;28;20436;-71
2022/05/05 08:09:20;;;;;;;2.75;1.10;;;;;;;34.88;5.63;100198.22;4996091;28;20054;-71
2022/05/05 08:12:08;;;;;;;2.88;1.13;;;;;;;33.27;6.24;100200.00;4996839;28;20042;-71
2022/05/05 08:14:35;;;;;;;1.97;1.10;;;;;;;34.71;5.52;100207.63;4995967;28;20502;-71
2022/05/05 08:17:02;;;;;;;2.50;1.10;;;;;;;35.27;5.24;100215.81;4996026;28;20510;-71
2022/05/05 08:19:29;;;;;;;2.50;1.30;;;;;;;36.39;5.15;100211.13;4996013;28;20077;-69
2022/05/05 08:21:56;;;;;;;2.33;1.10;;;;;;;38.12;4.30;100196.53;4994872;28;20482;-70
2022/05/05 08:29:54;;;;;;;4.72;1.33;;;;;;;40.01;3.89;100201.16;4996216;28;20054;-72
2022/05/05 08:32:22;;;;;;;6.40;1.33;;;;;;;40.84;3.77;100204.59;4996236;28;20561;-71
2022/05/05 08:34:49;;;;;;;6.03;1.15;;;;;;;40.33;3.69;100207.75;4994462;28;20509;-70
2022/05/05 08:37:16;;;;;;;3.90;1.10;;;;;;;38.68;4.03;100204.75;4995813;28;20054;-64
2022/05/05 08:39:44;;;;;;;5.45;0.80;;;;;;;35.54;5.21;100202.13;4995460;28;20140;-64
2022/05/05 08:42:11;;;;;;;3.03;1.60;;;;;;;33.14;6.08;100205.06;4995680;28;20050;-64
2022/05/05 08:44:39;;;;;;;3.33;1.13;;;;;;;30.89;6.65;100194.50;4995392;28;20152;-66
2022/05/05 08:47:09;;;;;;;1.75;1.00;;;;;;;31.00;6.92;100199.94;4995566;28;20061;-64
2022/05/05 08:49:39;;;;;;;2.40;1.05;;;;;;;33.83;5.68;100207.72;4995256;28;20514;-65
2022/05/05 08:52:08;;;;;;;3.90;1.10;;;;;;;36.70;4.90;100197.03;4995533;28;20130;-65
2022/05/05 08:54:38;;;;;;;;;;;;;;;38.53;4.69;100204.00;4995856;28;20481;-65
2022/05/05 08:57:05;;;;;;;6.40;1.27;;;;;;;40.35;3.82;100190.56;4995829;28;20013;-64
2022/05/05 08:59:32;;;;;;;2.33;1.08;;;;;;;40.76;3.38;100192.63;4995507;28;20510;-65
2022/05/05 09:01:59;;;;;;;2.70;1.00;;;;;;;40.85;3.32;100194.53;4996135;28;20137;-65
2022/05/05 09:04:26;;;;;;;3.40;1.25;;;;;;;40.42;3.22;100202.53;4995375;28;20129;-65
2022/05/05 09:06:53;;;;;;;2.67;1.15;;;;;;;40.45;3.09;100189.00;4995339;28;20145;-65
2022/05/05 09:09:25;;;;;;;1.75;1.02;;;;;;;40.93;3.13;100189.75;4995400;28;20070;-65
2022/05/05 09:12:10;;;;;;;2.38;1.08;;;;;;;41.86;2.74;100182.50;4993337;28;20385;-64
2022/05/05 09:14:41;;;;;;;2.90;1.27;;;;;;;40.90;2.93;100190.81;4995035;28;20073;-65
2022/05/05 09:17:10;;;;;;;1.50;1.08;;;;;;;39.58;2.99;100197.34;4995498;28;20060;-64
2022/05/05 09:19:43;;;;;;;1.88;1.00;;;;;;;39.17;3.44;100201.69;4995391;28;20058;-65
2022/05/05 09:22:10;;;;;;;23.75;8.88;;;;;;;39.52;3.33;100195.72;4995065;28;20047;-65
2022/05/05 09:24:43;;;;;;;2.27;1.20;;;;;;;40.20;3.04;100193.63;4995109;28;20117;-65
2022/05/05 09:27:24;;;;;;;4.32;1.17;;;;;;;41.67;3.00;100191.03;4995101;28;20104;-65
2022/05/05 09:30:09;;;;;;;4.90;1.35;;;;;;;42.51;2.53;100192.53;4995123;28;20060;-65
2022/05/05 09:32:38;;;;;;;2.22;1.10;;;;;;;42.37;2.48;100194.44;4994884;28;20053;-66
2022/05/05 09:35:10;;;;;;;4.53;1.58;;;;;;;38.63;3.94;100196.78;4995096;28;20509;-65
2022/05/05 09:37:47;;;;;;;1.98;1.08;;;;;;;32.11;6.22;100202.63;4979054;28;20061;-65
2022/05/05 09:40:20;;;;;;;3.50;1.10;;;;;;;26.98;8.33;100204.94;4975061;28;20089;-65
2022/05/05 09:42:52;;;;;;;4.55;0.95;;;;;;;23.81;10.01;100216.50;4975168;28;20511;-65
2022/05/05 09:45:19;;;;;;;1.77;0.98;;;;;;;21.48;11.48;100214.38;4975829;28;20503;-65
2022/05/05 09:47:54;;;;;;;5.25;1.73;;;;;;;19.65;12.67;100219.44;4985752;28;20249;-65
2022/05/05 09:50:23;;;;;;;2.97;1.52;;;;;;;18.69;13.26;100209.47;4994210;28;20140;-65
2022/05/05 09:58:34;;;;;;;1.75;0.93;;;;;;;16.51;14.99;100205.78;4994433;28;20498;-64
2022/05/05 10:01:08;;;;;;;4.82;1.08;;;;;;;16.64;14.91;100206.56;4994191;28;20129;-65
2022/05/05 10:04:01;;;;;;;4.28;1.38;;;;;;;16.52;15.68;100206.63;4993903;28;20050;-64
2022/05/05 10:06:32;;;;;;;1.95;1.00;;;;;;;16.05;15.69;100203.53;4994530;28;20569;-64
2022/05/05 10:09:02;;;;;;;1.20;0.80;;;;;;;15.55;16.76;100203.09;4994166;28;20050;-65
2022/05/05 10:11:30;;;;;;;1.15;0.80;;;;;;;15.12;16.85;100199.94;4992836;28;20049;-65
2022/05/05 10:14:05;;;;;;;2.28;1.10;;;;;;;15.19;17.05;100205.81;4994053;28;20054;-64
2022/05/05 10:16:32;;;;;;;1.80;1.00;;;;;;;14.77;17.37;100205.06;4994315;28;20109;-64
2022/05/05 10:19:03;;;;;;;2.15;0.80;;;;;;;14.11;17.99;100206.09;4993752;28;20050;-65
2022/05/05 10:21:58;;;;;;;3.05;1.17;;;;;;;14.06;17.91;100209.09;4993939;28;20073;-65
2022/05/05 10:24:53;;;;;;;1.95;1.02;;;;;;;14.06;17.87;100198.72;4992519;28;20142;-64
2022/05/05 10:27:21;;;;;;;3.72;0.88;;;;;;;13.96;18.09;100192.72;4992761;28;20058;-64
2022/05/05 10:29:48;;;;;;;2.03;1.00;;;;;;;13.30;18.93;100211.16;4994003;28;20066;-64
2022/05/05 10:32:19;;;;;;;1.92;0.80;;;;;;;12.93;19.14;100202.72;4993807;28;20489;-64
2022/05/05 10:35:05;;;;;;;1.80;0.98;;;;;;;12.91;19.50;100211.41;4993547;28;20058;-64
2022/05/05 10:37:36;;;;;;;3.35;1.00;;;;;;;12.78;19.61;100213.25;4993904;28;20054;-64
2022/05/05 10:40:07;;;;;;;3.38;1.10;;;;;;;12.79;19.49;100217.66;4993428;28;20138;-63
2022/05/05 10:42:45;;;;;;;3.03;2.17;;;;;;;12.72;19.44;100206.19;4993535;28;20150;-63
2022/05/05 10:45:29;;;;;;;1.80;0.88;;;;;;;12.60;19.27;100211.63;4993316;28;20054;-64
2022/05/05 10:47:58;;;;;;;2.35;0.85;;;;;;;12.78;19.32;100202.06;4993018;28;20125;-64
2022/05/05 10:50:31;;;;;;;3.47;0.80;;;;;;;12.65;19.55;100203.06;4993137;28;20062;-64
2022/05/05 10:52:59;;;;;;;1.55;0.93;;;;;;;12.69;19.61;100201.25;4993337;28;20154;-63
2022/05/05 10:55:43;;;;;;;2.03;1.00;;;;;;;12.57;19.57;100201.13;4993680;28;20050;-65
2022/05/05 10:58:59;;;;;;;2.17;1.17;;;;;;;12.76;19.72;100209.94;4993287;28;20054;-64
2022/05/05 11:01:27;;;;;;;1.73;0.82;;;;;;;12.86;19.46;100192.88;4991943;28;20133;-65
2022/05/05 11:04:04;;;;;;;4.25;1.30;;;;;;;12.76;19.94;100203.53;4993160;28;20050;-65
2022/05/05 11:06:33;;;;;;;7.25;3.40;;;;;;;12.53;20.45;100194.53;4993294;28;20418;-64
2022/05/05 11:09:00;;;;;;;3.55;1.67;;;;;;;12.19;20.37;100202.91;4993253;28;20054;-64
2022/05/05 11:11:40;;;;;;;2.42;0.90;;;;;;;11.97;21.23;100197.50;4993283;28;20042;-64
2022/05/05 11:23:08;;;;;;;1.80;1.35;;;;;;;12.26;21.04;100205.22;4993192;28;20506;-64
2022/05/05 11:25:41;;;;;;;2.25;1.13;;;;;;;12.32;21.24;100204.72;4992821;28;20154;-70
2022/05/05 11:28:09;;;;;;;1.50;0.90;;;;;;;12.35;20.69;100206.06;4992945;28;20057;-71
2022/05/05 11:30:36;;;;;;;5.72;0.98;;;;;;;12.36;20.57;100202.94;4993005;28;20484;-70
2022/05/05 11:33:06;;;;;;;4.10;0.93;;;;;;;12.40;20.20;100200.28;4992816;28;20038;-71
2022/05/05 11:35:53;;;;;;;6.28;2.08;;;;;;;12.47;20.36;100197.84;4995014;28;20137;-71
2022/05/05 11:38:22;;;;;;;3.70;1.08;;;;;;;12.41;20.60;100197.16;4996958;28;20062;-72
2022/05/05 11:40:58;;;;;;;5.90;0.97;;;;;;;12.46;20.43;100177.47;4997016;28;20138;-70
2022/05/05 11:46:10;;;;;;;3.85;1.10;;;;;;;12.71;20.53;100185.00;4996556;28;20086;-71
2022/05/05 11:48:38;;;;;;;1.67;0.88;;;;;;;12.81;20.13;100181.88;4996550;28;20799;-71
2022/05/05 11:51:06;;;;;;;1.52;0.73;;;;;;;12.80;20.44;100194.16;4995263;28;20061;-72
2022/05/05 11:53:35;;;;;;;3.83;1.10;;;;;;;12.57;20.37;100183.53;4996716;28;20062;-71
2022/05/05 11:56:03;;;;;;;3.33;1.13;;;;;;;12.56;20.57;100188.28;4996776;28;20054;-71
2022/05/05 12:01:39;;;;;;;3.33;1.38;;;;;;;12.46;20.56;100187.81;4996488;28;20503;-71
2022/05/05 12:04:12;;;;;;;1.67;1.00;;;;;;;12.14;20.71;100197.50;4996317;28;20054;-71
2022/05/05 12:06:40;;;;;;;4.82;1.08;;;;;;;12.07;20.59;100190.75;4997171;28;20124;-71
2022/05/05 12:09:07;;;;;;;2.65;0.98;;;;;;;12.06;20.58;100184.38;4996663;28;20506;-71
2022/05/05 12:11:35;;;;;;;5.30;0.95;;;;;;;11.98;20.73;100181.56;4996648;28;20133;-70
2022/05/05 12:14:06;;;;;;;5.07;1.10;;;;;;;11.93;20.88;100185.34;4995921;28;20527;-71
2022/05/05 12:16:34;;;;;;;2.05;0.85;;;;;;;11.98;20.44;100185.19;4996612;28;20050;-70
2022/05/05 12:19:12;;;;;;;3.20;1.30;;;;;;;12.07;20.51;100172.06;4996507;28;20137;-72
2022/05/05 12:21:59;;;;;;;8.95;1.38;;;;;;;12.16;21.10;100170.09;4996447;28;20054;-71
2022/05/05 12:24:28;;;;;;;2.85;1.58;;;;;;;12.28;20.84;100181.44;4995968;28;20043;-70